Time;durP1;ratioP1;P1;durP2;ratioP2;P2;SDS_P1;SDS_P2;PMS_P1;PMS_P2;Temp;Humidity;BMP_temperature;BMP_pressure;BME280_temperature;BME280_humidity;BME280_pressure;Samples;Min_cycle;Max_cycle;Signal;HPM_P1;HPM_P2
2023/08/29 00:01:06;;;;;;;1.08;0.90;;;;;;;;;;6215729;23;20349;-89
2023/08/29 00:03:33;;;;;;;0.95;0.82;;;;;;;;;;6243497;23;20023;-90
2023/08/29 00:06:03;;;;;;;1.85;1.00;;;;;;;;;;6215382;23;20070;-89
2023/08/29 00:08:30;;;;;;;3.88;1.52;;;;;;;;;;6215793;23;20457;-89
2023/08/29 00:10:59;;;;;;;1.67;1.30;;;;;;;;;;6242319;23;20079;-89
2023/08/29 00:13:25;;;;;;;1.83;1.00;;;;;;;;;;6216110;23;20298;-90
2023/08/29 00:15:51;;;;;;;1.10;1.00;;;;;;;;;;6215431;23;20012;-89
2023/08/29 00:18:21;;;;;;;1.67;1.27;;;;;;;;;;6243023;23;20095;-89
2023/08/29 00:20:48;;;;;;;1.95;1.15;;;;;;;;;;6215534;23;20479;-89
2023/08/29 00:23:14;;;;;;;2.10;1.13;;;;;;;;;;6190433;23;20016;-89
2023/08/29 00:25:40;;;;;;;1.50;1.38;;;;;;;;;;6216443;23;20062;-89
2023/08/29 00:28:07;;;;;;;1.90;1.20;;;;;;;;;;6214489;23;20024;-90
2023/08/29 00:30:37;;;;;;;1.58;1.05;;;;;;;;;;6215025;23;20078;-89
2023/08/29 00:33:03;;;;;;;1.20;1.10;;;;;;;;;;6241803;23;20311;-90
2023/08/29 00:35:29;;;;;;;1.42;1.10;;;;;;;;;;6215277;23;20031;-89
2023/08/29 00:37:55;;;;;;;1.27;1.15;;;;;;;;;;6242414;23;20023;-90
2023/08/29 00:40:21;;;;;;;2.70;1.17;;;;;;;;;;6215836;23;20012;-89
2023/08/29 00:42:48;;;;;;;0.98;0.88;;;;;;;;;;6215745;23;20016;-90
2023/08/29 00:45:14;;;;;;;1.13;1.02;;;;;;;;;;6215620;23;20023;-90
2023/08/29 00:47:40;;;;;;;1.48;1.27;;;;;;;;;;6216306;23;20033;-90
2023/08/29 00:50:07;;;;;;;1.55;1.33;;;;;;;;;;6190837;23;20103;-90
2023/08/29 00:52:33;;;;;;;1.05;0.95;;;;;;;;;;6243242;23;20138;-90
2023/08/29 00:55:00;;;;;;;1.25;1.00;;;;;;;;;;6215128;23;20012;-90
2023/08/29 00:57:26;;;;;;;1.70;1.13;;;;;;;;;;6242249;23;20164;-90
2023/08/29 00:59:52;;;;;;;2.00;1.20;;;;;;;;;;6242306;23;20008;-90
2023/08/29 01:02:18;;;;;;;2.00;0.95;;;;;;;;;;6215964;23;20043;-91
2023/08/29 01:04:44;;;;;;;1.58;1.17;;;;;;;;;;6215845;23;20017;-90
2023/08/29 01:07:12;;;;;;;1.75;1.20;;;;;;;;;;6242463;23;20469;-90
2023/08/29 01:09:38;;;;;;;1.05;0.95;;;;;;;;;;6217507;23;20038;-89
2023/08/29 01:12:12;;;;;;;1.30;1.20;;;;;;;;;;6217782;23;20016;-91
2023/08/29 01:14:41;;;;;;;1.35;1.10;;;;;;;;;;6218206;23;20437;-90
2023/08/29 01:17:19;;;;;;;1.20;1.10;;;;;;;;;;6245057;23;20018;-90
2023/08/29 01:19:48;;;;;;;1.42;1.20;;;;;;;;;;6193554;23;20092;-91
2023/08/29 01:22:23;;;;;;;2.58;1.42;;;;;;;;;;6218190;23;20030;-91
2023/08/29 01:24:52;;;;;;;1.40;1.25;;;;;;;;;;6194181;23;20437;-90
2023/08/29 01:27:19;;;;;;;1.63;1.48;;;;;;;;;;6194075;23;20016;-89
2023/08/29 01:29:48;;;;;;;1.92;1.48;;;;;;;;;;6245411;23;20022;-90
2023/08/29 01:32:15;;;;;;;3.25;1.52;;;;;;;;;;6249180;23;20016;-90
2023/08/29 01:34:43;;;;;;;2.15;1.52;;;;;;;;;;6222517;23;20016;-90
2023/08/29 01:37:09;;;;;;;2.92;1.75;;;;;;;;;;6223321;23;20024;-91
2023/08/29 01:39:35;;;;;;;2.47;1.42;;;;;;;;;;6212508;23;20016;-90
2023/08/29 01:42:01;;;;;;;2.00;1.40;;;;;;;;;;6268452;23;20012;-90
2023/08/29 01:44:28;;;;;;;2.15;1.42;;;;;;;;;;6237863;23;20344;-91
2023/08/29 01:46:54;;;;;;;1.63;1.40;;;;;;;;;;6227267;23;20008;-91
2023/08/29 01:49:20;;;;;;;2.33;1.30;;;;;;;;;;6218754;23;20537;-91
2023/08/29 01:51:46;;;;;;;1.63;1.13;;;;;;;;;;6245430;23;20048;-91
2023/08/29 01:54:12;;;;;;;2.85;1.20;;;;;;;;;;6192768;23;20024;-91
2023/08/29 01:56:39;;;;;;;1.55;0.88;;;;;;;;;;6218740;23;20051;-91
2023/08/29 01:59:06;;;;;;;1.73;0.98;;;;;;;;;;6216827;23;20020;-91
2023/08/29 02:01:32;;;;;;;1.80;1.30;;;;;;;;;;6244010;23;20067;-91
2023/08/29 02:03:58;;;;;;;1.98;0.90;;;;;;;;;;6191771;23;20023;-91
2023/08/29 02:06:24;;;;;;;1.20;0.98;;;;;;;;;;6217769;23;20442;-91
2023/08/29 02:08:50;;;;;;;1.17;0.90;;;;;;;;;;6217934;23;20027;-91
2023/08/29 02:11:17;;;;;;;1.40;1.00;;;;;;;;;;6192791;23;20024;-91
2023/08/29 02:13:43;;;;;;;1.15;1.02;;;;;;;;;;6244483;23;20016;-91
2023/08/29 02:16:08;;;;;;;1.70;1.20;;;;;;;;;;6217153;23;20350;-91
2023/08/29 02:18:35;;;;;;;1.27;1.00;;;;;;;;;;6217138;23;20016;-91
2023/08/29 02:21:01;;;;;;;1.30;1.00;;;;;;;;;;6244367;23;20013;-91
2023/08/29 02:23:27;;;;;;;1.75;1.08;;;;;;;;;;6218216;23;20043;-91
2023/08/29 02:26:03;;;;;;;3.47;1.27;;;;;;;;;;6217812;23;20062;-92
2023/08/29 02:28:29;;;;;;;1.77;0.90;;;;;;;;;;6217450;23;20024;-92
2023/08/29 02:30:55;;;;;;;1.45;1.10;;;;;;;;;;6244011;23;20091;-92
2023/08/29 02:33:21;;;;;;;1.25;0.90;;;;;;;;;;6245236;23;20307;-92
2023/08/29 02:35:47;;;;;;;1.20;1.00;;;;;;;;;;6218041;23;20095;-92
2023/08/29 02:38:13;;;;;;;1.20;1.10;;;;;;;;;;6193168;23;20044;-92
2023/08/29 02:40:39;;;;;;;2.28;1.00;;;;;;;;;;6193480;23;20039;-91
2023/08/29 02:43:05;;;;;;;1.30;1.08;;;;;;;;;;6217776;23;20023;-93
2023/08/29 02:45:31;;;;;;;2.15;1.23;;;;;;;;;;6216371;23;20012;-92
2023/08/29 02:47:57;;;;;;;1.73;1.35;;;;;;;;;;6216713;23;20024;-92
2023/08/29 02:50:23;;;;;;;1.60;0.90;;;;;;;;;;6192661;23;20323;-92
2023/08/29 02:52:49;;;;;;;1.55;1.02;;;;;;;;;;6203271;23;20337;-93
2023/08/29 02:55:15;;;;;;;1.23;1.05;;;;;;;;;;6191906;23;20438;-92
2023/08/29 02:57:41;;;;;;;1.13;0.93;;;;;;;;;;6217803;23;20043;-93
2023/08/29 03:00:07;;;;;;;3.17;1.48;;;;;;;;;;6191587;23;20016;-93
2023/08/29 03:02:33;;;;;;;1.27;1.13;;;;;;;;;;6217820;23;20083;-92
2023/08/29 03:04:59;;;;;;;0.73;0.65;;;;;;;;;;6192461;23;20016;-93
2023/08/29 03:07:26;;;;;;;2.55;0.98;;;;;;;;;;6217809;23;20016;-92
2023/08/29 03:09:52;;;;;;;1.10;1.00;;;;;;;;;;6191363;23;20023;-92
2023/08/29 03:12:18;;;;;;;1.02;0.90;;;;;;;;;;6192502;23;20012;-92
2023/08/29 03:14:44;;;;;;;1.13;1.00;;;;;;;;;;6218008;23;20018;-92
2023/08/29 03:17:10;;;;;;;1.33;0.95;;;;;;;;;;6243870;23;20506;-92
2023/08/29 03:19:36;;;;;;;1.35;1.10;;;;;;;;;;6218621;23;20050;-93
2023/08/29 03:22:02;;;;;;;1.92;1.30;;;;;;;;;;6244687;23;20046;-92
2023/08/29 03:24:28;;;;;;;1.60;1.13;;;;;;;;;;6218686;23;20070;-93
2023/08/29 03:26:54;;;;;;;1.63;1.20;;;;;;;;;;6192625;23;20012;-93
2023/08/29 03:29:20;;;;;;;0.90;0.88;;;;;;;;;;6192480;23;20012;-92
2023/08/29 03:31:46;;;;;;;1.33;1.13;;;;;;;;;;6218351;23;20094;-92
2023/08/29 03:34:12;;;;;;;0.82;0.73;;;;;;;;;;6244360;23;20012;-93
2023/08/29 03:36:38;;;;;;;0.90;0.90;;;;;;;;;;6218132;23;20016;-92
2023/08/29 03:39:04;;;;;;;0.95;0.80;;;;;;;;;;6217522;23;20012;-92
2023/08/29 03:41:30;;;;;;;1.00;0.82;;;;;;;;;;6193449;23;20019;-92
2023/08/29 03:43:56;;;;;;;1.13;0.75;;;;;;;;;;6198097;23;20039;-93
2023/08/29 03:46:22;;;;;;;1.77;0.60;;;;;;;;;;6268055;23;20051;-93
2023/08/29 03:48:48;;;;;;;0.85;0.60;;;;;;;;;;6206151;23;20323;-93
2023/08/29 03:51:14;;;;;;;0.70;0.68;;;;;;;;;;6224696;23;20047;-93
2023/08/29 03:53:40;;;;;;;0.70;0.52;;;;;;;;;;6243583;23;20012;-91
2023/08/29 03:56:08;;;;;;;1.00;0.50;;;;;;;;;;6215348;23;20028;-92
2023/08/29 03:58:35;;;;;;;0.60;0.60;;;;;;;;;;6219887;23;20016;-93
2023/08/29 04:01:03;;;;;;;0.60;0.55;;;;;;;;;;6193595;23;20319;-92
2023/08/29 04:03:30;;;;;;;0.68;0.68;;;;;;;;;;6194085;23;20023;-93
2023/08/29 04:05:56;;;;;;;1.02;0.70;;;;;;;;;;6193760;23;20074;-92
2023/08/29 04:08:25;;;;;;;1.63;0.75;;;;;;;;;;6192799;23;20377;-93
2023/08/29 04:10:51;;;;;;;1.25;0.60;;;;;;;;;;6192664;23;20024;-93
2023/08/29 04:13:17;;;;;;;2.17;1.00;;;;;;;;;;6244662;23;20008;-93
2023/08/29 04:15:43;;;;;;;1.63;1.10;;;;;;;;;;6220825;23;20012;-92
2023/08/29 04:18:10;;;;;;;0.93;0.82;;;;;;;;;;6248855;23;20310;-93
2023/08/29 04:20:37;;;;;;;1.17;0.98;;;;;;;;;;6193564;23;20016;-94
2023/08/29 04:23:03;;;;;;;1.15;0.80;;;;;;;;;;6195418;23;20008;-92
2023/08/29 04:25:30;;;;;;;1.25;0.90;;;;;;;;;;6218782;23;20012;-94
2023/08/29 04:27:56;;;;;;;1.15;0.73;;;;;;;;;;6192301;23;20456;-92
2023/08/29 04:30:23;;;;;;;1.80;0.75;;;;;;;;;;6217290;23;20023;-92
2023/08/29 04:32:50;;;;;;;1.70;0.90;;;;;;;;;;6216392;23;20495;-93
2023/08/29 04:35:16;;;;;;;0.88;0.70;;;;;;;;;;6217248;23;20090;-93
2023/08/29 04:37:46;;;;;;;1.30;0.70;;;;;;;;;;6218213;23;20023;-93
2023/08/29 04:40:12;;;;;;;1.30;0.80;;;;;;;;;;6217530;23;20091;-92
2023/08/29 04:42:40;;;;;;;0.63;0.57;;;;;;;;;;6191973;23;20426;-92
2023/08/29 04:45:06;;;;;;;0.90;0.60;;;;;;;;;;6191930;23;20020;-92
2023/08/29 04:47:32;;;;;;;1.02;0.63;;;;;;;;;;6192040;23;20012;-93
2023/08/29 04:50:01;;;;;;;0.88;0.65;;;;;;;;;;6216884;23;20020;-94
2023/08/29 04:52:27;;;;;;;0.55;0.50;;;;;;;;;;6192041;23;20020;-94
2023/08/29 04:54:54;;;;;;;1.23;0.70;;;;;;;;;;6191784;23;20058;-94
2023/08/29 04:57:20;;;;;;;0.80;0.60;;;;;;;;;;6191650;23;20034;-93
2023/08/29 04:59:46;;;;;;;0.63;0.52;;;;;;;;;;6217287;23;20027;-92
2023/08/29 05:02:12;;;;;;;1.70;0.50;;;;;;;;;;6216464;23;20493;-92
2023/08/29 05:04:39;;;;;;;0.82;0.57;;;;;;;;;;6215771;23;20040;-93
2023/08/29 05:07:05;;;;;;;0.40;0.40;;;;;;;;;;6216311;23;20039;-93
2023/08/29 05:09:31;;;;;;;0.65;0.65;;;;;;;;;;6192198;23;20014;-94
2023/08/29 05:11:57;;;;;;;0.75;0.60;;;;;;;;;;6194608;23;20023;-93
2023/08/29 05:14:23;;;;;;;0.50;0.40;;;;;;;;;;6247537;23;20406;-93
2023/08/29 05:16:49;;;;;;;1.70;0.73;;;;;;;;;;6223520;23;20484;-95
2023/08/29 05:19:15;;;;;;;0.90;0.63;;;;;;;;;;6196311;23;20350;-94
2023/08/29 05:21:41;;;;;;;0.40;0.32;;;;;;;;;;6195610;23;20066;-95
2023/08/29 05:24:07;;;;;;;0.60;0.57;;;;;;;;;;6198425;23;20019;-96
2023/08/29 05:26:33;;;;;;;0.65;0.43;;;;;;;;;;6219173;23;20023;-94
2023/08/29 05:28:59;;;;;;;0.90;0.60;;;;;;;;;;6193883;23;20034;-94
2023/08/29 05:31:25;;;;;;;4.95;0.68;;;;;;;;;;6193056;23;20066;-93
2023/08/29 05:33:51;;;;;;;0.70;0.70;;;;;;;;;;6217078;23;20020;-92
2023/08/29 05:36:17;;;;;;;1.20;0.70;;;;;;;;;;6192090;23;20016;-92
2023/08/29 05:38:44;;;;;;;0.82;0.60;;;;;;;;;;6196094;23;20036;-94
2023/08/29 05:41:10;;;;;;;0.90;0.63;;;;;;;;;;6223229;23;20394;-92
2023/08/29 05:43:36;;;;;;;0.70;0.50;;;;;;;;;;6194023;23;20012;-91
2023/08/29 05:46:02;;;;;;;0.63;0.57;;;;;;;;;;6217758;23;20012;-92
2023/08/29 05:48:28;;;;;;;0.55;0.50;;;;;;;;;;6219050;23;20038;-89
2023/08/29 05:50:55;;;;;;;1.10;0.40;;;;;;;;;;6197991;23;20091;-91
2023/08/29 05:53:21;;;;;;;1.20;0.70;;;;;;;;;;6220539;23;20018;-92
2023/08/29 05:55:47;;;;;;;1.10;0.55;;;;;;;;;;6248085;23;20070;-92
2023/08/29 05:58:13;;;;;;;1.27;0.57;;;;;;;;;;6200398;23;20013;-92
2023/08/29 06:00:39;;;;;;;0.40;0.40;;;;;;;;;;6202629;23;20083;-91
2023/08/29 06:03:07;;;;;;;0.38;0.38;;;;;;;;;;6226203;23;20047;-89
2023/08/29 06:05:38;;;;;;;0.50;0.43;;;;;;;;;;6222214;23;20019;-93
2023/08/29 06:08:06;;;;;;;1.45;0.32;;;;;;;;;;6197345;23;20050;-92
2023/08/29 06:10:32;;;;;;;0.35;0.35;;;;;;;;;;6222647;23;20051;-91
2023/08/29 06:12:58;;;;;;;1.33;0.40;;;;;;;;;;6248957;23;20340;-91
2023/08/29 06:15:24;;;;;;;0.68;0.60;;;;;;;;;;6222397;23;20008;-92
2023/08/29 06:17:50;;;;;;;0.60;0.55;;;;;;;;;;6196523;23;20012;-93
2023/08/29 06:20:16;;;;;;;0.77;0.50;;;;;;;;;;6226237;23;20016;-93
2023/08/29 06:22:42;;;;;;;1.23;0.60;;;;;;;;;;6202050;23;20020;-94
2023/08/29 06:25:09;;;;;;;1.13;0.60;;;;;;;;;;6243941;23;20485;-93
2023/08/29 06:27:36;;;;;;;0.77;0.70;;;;;;;;;;6245377;22;20011;-94
2023/08/29 06:30:02;;;;;;;0.82;0.52;;;;;;;;;;6214378;23;20012;-94
2023/08/29 06:32:29;;;;;;;2.17;1.00;;;;;;;;;;6194138;23;20016;-94
2023/08/29 06:34:55;;;;;;;1.25;0.80;;;;;;;;;;6219571;23;20012;-95
2023/08/29 06:37:21;;;;;;;1.50;1.00;;;;;;;;;;6196331;23;20008;-94
2023/08/29 06:39:47;;;;;;;1.33;1.00;;;;;;;;;;6220512;23;20012;-92
2023/08/29 06:42:13;;;;;;;0.95;0.80;;;;;;;;;;6192170;23;20018;-92
2023/08/29 06:44:39;;;;;;;1.23;0.93;;;;;;;;;;6217827;23;20027;-92
2023/08/29 06:47:06;;;;;;;2.42;1.08;;;;;;;;;;6246907;23;20008;-91
2023/08/29 06:49:32;;;;;;;1.38;1.13;;;;;;;;;;6218638;23;20043;-93
2023/08/29 06:51:58;;;;;;;1.42;1.02;;;;;;;;;;6244191;23;20042;-93
2023/08/29 06:54:24;;;;;;;1.25;1.02;;;;;;;;;;6217617;23;20107;-92
2023/08/29 06:56:50;;;;;;;1.42;1.10;;;;;;;;;;6219584;23;20017;-94
2023/08/29 06:59:16;;;;;;;1.45;1.13;;;;;;;;;;6193589;23;20023;-94
2023/08/29 07:01:42;;;;;;;1.52;1.30;;;;;;;;;;6196020;23;20038;-91
2023/08/29 07:04:10;;;;;;;1.73;1.25;;;;;;;;;;6221597;23;20106;-95
2023/08/29 07:06:37;;;;;;;2.67;1.50;;;;;;;;;;6194609;23;20019;-93
2023/08/29 07:09:03;;;;;;;2.30;1.58;;;;;;;;;;6218945;23;20079;-95
2023/08/29 07:11:29;;;;;;;2.25;1.50;;;;;;;;;;6193085;23;20059;-93
2023/08/29 07:13:55;;;;;;;3.97;1.35;;;;;;;;;;6219845;23;20027;-90
2023/08/29 07:16:22;;;;;;;1.98;1.05;;;;;;;;;;6245222;23;20020;-91
2023/08/29 07:18:49;;;;;;;2.15;1.45;;;;;;;;;;6245372;23;20016;-91
2023/08/29 07:21:16;;;;;;;1.92;1.20;;;;;;;;;;6247665;23;20020;-95
2023/08/29 07:23:43;;;;;;;1.48;0.95;;;;;;;;;;6202393;23;20012;-93
2023/08/29 07:26:09;;;;;;;1.75;1.20;;;;;;;;;;6229165;23;20064;-96
2023/08/29 07:28:36;;;;;;;3.63;1.38;;;;;;;;;;6238165;23;20381;-96
2023/08/29 07:31:02;;;;;;;0.85;0.80;;;;;;;;;;6234988;23;20016;-95
2023/08/29 07:33:30;;;;;;;1.55;0.95;;;;;;;;;;6242033;23;20062;-96
2023/08/29 07:36:00;;;;;;;1.55;1.10;;;;;;;;;;6258859;23;20016;-96
2023/08/29 07:38:26;;;;;;;1.92;1.42;;;;;;;;;;6216249;23;20030;-95
2023/08/29 07:40:52;;;;;;;1.75;1.20;;;;;;;;;;6206705;23;20529;-92
2023/08/29 07:43:18;;;;;;;2.03;1.10;;;;;;;;;;6249881;23;20311;-95
2023/08/29 07:45:46;;;;;;;1.50;1.00;;;;;;;;;;6199414;23;20091;-93
2023/08/29 07:48:12;;;;;;;2.28;0.70;;;;;;;;;;6217088;23;20501;-90
2023/08/29 07:50:38;;;;;;;1.17;0.88;;;;;;;;;;6217223;23;20095;-90
2023/08/29 07:53:05;;;;;;;1.55;1.00;;;;;;;;;;6190604;23;20096;-91
2023/08/29 07:55:31;;;;;;;1.20;0.90;;;;;;;;;;6196034;23;20393;-93
2023/08/29 07:58:00;;;;;;;2.17;0.98;;;;;;;;;;6245641;23;20026;-94
2023/08/29 08:00:28;;;;;;;1.65;0.90;;;;;;;;;;6195645;23;20019;-92
2023/08/29 08:02:54;;;;;;;1.10;1.00;;;;;;;;;;6244317;23;20088;-92
2023/08/29 08:05:20;;;;;;;1.60;0.82;;;;;;;;;;6215959;23;20012;-91
2023/08/29 08:07:47;;;;;;;1.50;1.02;;;;;;;;;;6243941;23;20020;-91
2023/08/29 08:10:15;;;;;;;2.38;1.08;;;;;;;;;;6190356;23;20016;-93
2023/08/29 08:12:42;;;;;;;1.80;0.82;;;;;;;;;;6192001;23;20023;-93
2023/08/29 08:15:08;;;;;;;1.02;0.88;;;;;;;;;;6190738;23;20040;-92
2023/08/29 08:17:35;;;;;;;0.80;0.77;;;;;;;;;;6215617;23;20024;-91
2023/08/29 08:20:05;;;;;;;1.85;1.00;;;;;;;;;;6242655;23;20019;-91
2023/08/29 08:22:32;;;;;;;2.60;1.08;;;;;;;;;;6240714;23;20555;-90
2023/08/29 08:24:58;;;;;;;1.60;1.05;;;;;;;;;;6216091;23;20048;-90
2023/08/29 08:27:24;;;;;;;0.85;0.63;;;;;;;;;;6243705;23;20016;-93
2023/08/29 08:29:50;;;;;;;0.80;0.63;;;;;;;;;;6242370;23;20012;-92
2023/08/29 08:32:16;;;;;;;2.13;0.90;;;;;;;;;;6190045;23;20019;-92
2023/08/29 08:34:43;;;;;;;0.98;0.60;;;;;;;;;;6191562;23;20013;-92
2023/08/29 08:37:09;;;;;;;0.90;0.68;;;;;;;;;;6190602;23;20347;-91
2023/08/29 08:39:35;;;;;;;2.97;0.95;;;;;;;;;;6216213;23;20338;-92
2023/08/29 08:42:07;;;;;;;1.08;0.60;;;;;;;;;;6248532;23;20061;-93
2023/08/29 08:44:33;;;;;;;1.70;0.60;;;;;;;;;;6201441;23;20024;-90
2023/08/29 08:46:59;;;;;;;1.88;0.40;;;;;;;;;;6217080;23;20012;-92
2023/08/29 08:49:26;;;;;;;1.50;0.60;;;;;;;;;;6191102;23;20501;-93
2023/08/29 08:51:53;;;;;;;1.02;0.60;;;;;;;;;;6214091;23;20019;-90
2023/08/29 08:54:19;;;;;;;0.50;0.50;;;;;;;;;;6242259;23;20035;-90
2023/08/29 08:56:45;;;;;;;1.30;0.80;;;;;;;;;;6242679;23;20066;-89
2023/08/29 08:59:11;;;;;;;1.80;0.60;;;;;;;;;;6214821;23;20020;-90
2023/08/29 09:01:38;;;;;;;0.85;0.55;;;;;;;;;;6191416;23;20027;-90
2023/08/29 09:04:04;;;;;;;1.00;0.60;;;;;;;;;;6215444;23;20091;-90
2023/08/29 09:06:30;;;;;;;0.75;0.60;;;;;;;;;;6215690;23;20079;-90
2023/08/29 09:08:57;;;;;;;1.58;1.00;;;;;;;;;;6215374;23;20043;-89
2023/08/29 09:11:23;;;;;;;1.17;0.85;;;;;;;;;;6243031;23;20019;-89
2023/08/29 09:13:49;;;;;;;1.05;0.63;;;;;;;;;;6216220;23;20012;-89
2023/08/29 09:16:16;;;;;;;1.77;0.80;;;;;;;;;;6242834;23;20023;-90
2023/08/29 09:18:50;;;;;;;2.50;0.93;;;;;;;;;;6243210;23;20020;-91
2023/08/29 09:21:21;;;;;;;1.23;0.70;;;;;;;;;;6216395;23;20020;-89
2023/08/29 09:23:47;;;;;;;1.40;0.45;;;;;;;;;;6243575;23;20023;-89
2023/08/29 09:26:13;;;;;;;1.13;0.55;;;;;;;;;;6215283;23;20046;-87
2023/08/29 09:28:40;;;;;;;0.95;0.70;;;;;;;;;;6242078;23;20062;-88
2023/08/29 09:31:07;;;;;;;1.20;0.50;;;;;;;;;;6243211;23;20392;-88
2023/08/29 09:33:33;;;;;;;3.38;0.57;;;;;;;;;;6191245;23;20342;-90
2023/08/29 09:36:05;;;;;;;0.95;0.73;;;;;;;;;;6216843;23;20020;-87
2023/08/29 09:38:32;;;;;;;1.70;0.68;;;;;;;;;;6244729;23;20012;-87
2023/08/29 09:40:58;;;;;;;0.95;0.50;;;;;;;;;;6217204;23;20043;-88
2023/08/29 09:43:24;;;;;;;0.90;0.70;;;;;;;;;;6217517;23;20087;-87
2023/08/29 09:45:51;;;;;;;1.25;0.70;;;;;;;;;;6216607;23;20008;-89
2023/08/29 09:48:18;;;;;;;0.63;0.60;;;;;;;;;;6243784;23;20050;-87
2023/08/29 09:50:44;;;;;;;0.40;0.40;;;;;;;;;;6216677;23;20066;-87
2023/08/29 09:53:14;;;;;;;1.83;0.60;;;;;;;;;;6210727;23;20016;-88
2023/08/29 09:55:40;;;;;;;1.17;0.57;;;;;;;;;;6211777;23;20024;-88
2023/08/29 09:58:07;;;;;;;1.10;0.43;;;;;;;;;;6210627;23;20337;-89
2023/08/29 10:00:35;;;;;;;2.10;0.77;;;;;;;;;;6211726;23;20059;-89
2023/08/29 10:03:04;;;;;;;1.00;0.85;;;;;;;;;;6210906;23;20024;-89
2023/08/29 10:05:33;;;;;;;1.15;0.63;;;;;;;;;;6211428;23;20013;-89
2023/08/29 10:08:01;;;;;;;2.42;0.75;;;;;;;;;;6211097;23;20021;-87
2023/08/29 10:10:27;;;;;;;0.95;0.50;;;;;;;;;;6211165;23;20027;-88
2023/08/29 10:12:55;;;;;;;0.55;0.50;;;;;;;;;;6211772;23;20430;-88
2023/08/29 10:15:21;;;;;;;1.27;0.50;;;;;;;;;;6211151;23;20016;-90
2023/08/29 10:17:47;;;;;;;0.95;0.73;;;;;;;;;;6211289;23;20055;-85
2023/08/29 10:20:15;;;;;;;3.35;0.70;;;;;;;;;;6210511;23;20471;-91
2023/08/29 10:22:45;;;;;;;1.08;0.98;;;;;;;;;;6209998;23;20079;-92
2023/08/29 10:25:13;;;;;;;;;;;;;;;;;;6184245;23;20046;-93
2023/08/29 10:27:40;;;;;;;0.95;0.60;;;;;;;;;;6210303;23;19931;-88
2023/08/29 10:30:06;;;;;;;0.90;0.50;;;;;;;;;;6212972;23;20462;-92
2023/08/29 10:32:34;;;;;;;1.77;0.50;;;;;;;;;;6223601;23;20064;-92
2023/08/29 10:35:00;;;;;;;0.60;0.45;;;;;;;;;;6218853;23;20016;-94
2023/08/29 10:37:28;;;;;;;1.52;0.60;;;;;;;;;;6216079;23;20021;-94
2023/08/29 10:40:08;;;;;;;0.70;0.38;;;;;;;;;;6217567;23;20058;-94
2023/08/29 10:42:48;;;;;;;2.17;0.45;;;;;;;;;;6196979;23;20013;-93
2023/08/29 10:45:14;;;;;;;0.60;0.50;;;;;;;;;;6191991;23;20442;-87
2023/08/29 10:47:46;;;;;;;0.47;0.38;;;;;;;;;;6213721;23;20074;-90
2023/08/29 10:50:17;;;;;;;0.45;0.40;;;;;;;;;;6189406;23;20016;-87
2023/08/29 10:52:45;;;;;;;2.67;0.60;;;;;;;;;;6217030;23;20021;-92
2023/08/29 10:55:25;;;;;;;0.88;0.40;;;;;;;;;;6248947;23;20054;-90
2023/08/29 10:57:53;;;;;;;1.63;0.60;;;;;;;;;;6219577;23;20020;-91
2023/08/29 11:00:35;;;;;;;1.02;0.50;;;;;;;;;;6245563;23;20511;-91
2023/08/29 11:03:02;;;;;;;;;;;;;;;;;;6222706;23;20373;-92
2023/08/29 11:05:28;;;;;;;2.40;1.00;;;;;;;;;;6224609;23;19916;-90
2023/08/29 11:08:14;;;;;;;0.50;0.50;;;;;;;;;;6222774;23;20016;-92
2023/08/29 11:10:40;;;;;;;2.83;0.57;;;;;;;;;;6268949;22;20001;-90
2023/08/29 11:13:09;;;;;;;1.67;0.47;;;;;;;;;;6242406;23;20016;-93
2023/08/29 11:15:50;;;;;;;0.73;0.60;;;;;;;;;;6230201;23;20268;-86
2023/08/29 11:18:32;;;;;;;1.38;0.70;;;;;;;;;;6218505;23;20016;-88
2023/08/29 11:21:09;;;;;;;0.90;0.32;;;;;;;;;;6216446;23;20086;-85
2023/08/29 11:23:38;;;;;;;0.70;0.40;;;;;;;;;;6215891;23;20015;-89
2023/08/29 11:26:04;;;;;;;0.85;0.50;;;;;;;;;;6216808;23;20012;-88
2023/08/29 11:28:34;;;;;;;0.50;0.43;;;;;;;;;;6243032;23;20016;-89
2023/08/29 11:31:00;;;;;;;0.60;0.50;;;;;;;;;;6216602;23;20046;-90
2023/08/29 11:33:31;;;;;;;2.90;0.98;;;;;;;;;;6217718;23;20066;-89
2023/08/29 11:35:57;;;;;;;0.38;0.38;;;;;;;;;;6216583;23;20067;-89
2023/08/29 11:38:28;;;;;;;1.25;0.40;;;;;;;;;;6216367;23;20043;-89
2023/08/29 11:40:55;;;;;;;0.40;0.40;;;;;;;;;;6216084;23;20019;-88
2023/08/29 11:43:21;;;;;;;0.40;0.40;;;;;;;;;;6216076;23;20012;-89
2023/08/29 11:45:47;;;;;;;1.30;0.60;;;;;;;;;;6217109;23;20015;-87
2023/08/29 11:48:13;;;;;;;0.73;0.60;;;;;;;;;;6242723;23;20020;-87
2023/08/29 11:50:40;;;;;;;0.93;0.63;;;;;;;;;;6191478;23;20012;-89
2023/08/29 11:53:06;;;;;;;0.55;0.45;;;;;;;;;;6216317;23;20356;-90
2023/08/29 11:55:32;;;;;;;0.98;0.70;;;;;;;;;;6216644;23;20026;-89
2023/08/29 11:57:59;;;;;;;0.60;0.57;;;;;;;;;;6215417;23;20008;-87
2023/08/29 12:00:25;;;;;;;0.68;0.65;;;;;;;;;;6216151;23;20012;-88
2023/08/29 12:02:51;;;;;;;2.25;0.70;;;;;;;;;;6215783;23;20012;-88
2023/08/29 12:05:20;;;;;;;1.20;0.88;;;;;;;;;;6214845;23;20012;-87
2023/08/29 12:07:50;;;;;;;0.93;0.60;;;;;;;;;;6213770;23;20095;-88
2023/08/29 12:10:16;;;;;;;1.10;0.80;;;;;;;;;;6212766;23;20102;-88
2023/08/29 12:12:43;;;;;;;1.60;0.80;;;;;;;;;;6213553;23;20091;-87
2023/08/29 12:15:16;;;;;;;1.63;0.77;;;;;;;;;;6213540;23;20512;-88
2023/08/29 12:17:44;;;;;;;0.88;0.60;;;;;;;;;;6241065;23;20016;-88
2023/08/29 12:20:15;;;;;;;1.02;0.75;;;;;;;;;;6213209;23;20046;-88
2023/08/29 12:22:49;;;;;;;1.63;0.98;;;;;;;;;;6215129;23;20055;-88
2023/08/29 12:25:15;;;;;;;2.65;0.98;;;;;;;;;;6215470;23;20031;-87
2023/08/29 12:27:44;;;;;;;1.17;1.08;;;;;;;;;;6190387;23;20405;-88
2023/08/29 12:30:13;;;;;;;1.77;1.00;;;;;;;;;;6190063;23;20077;-87
2023/08/29 12:32:40;;;;;;;1.13;0.85;;;;;;;;;;6216148;23;20015;-87
2023/08/29 12:35:06;;;;;;;1.20;0.85;;;;;;;;;;6241143;23;20016;-86
2023/08/29 12:37:32;;;;;;;1.30;0.90;;;;;;;;;;6240596;23;20009;-87
2023/08/29 12:39:58;;;;;;;1.58;0.93;;;;;;;;;;6240131;23;20043;-87
2023/08/29 12:42:24;;;;;;;1.40;0.93;;;;;;;;;;6241514;23;20456;-86
2023/08/29 12:44:50;;;;;;;1.45;0.82;;;;;;;;;;6241636;23;20012;-87
2023/08/29 12:47:17;;;;;;;1.35;0.95;;;;;;;;;;6213366;23;20610;-86
2023/08/29 12:49:43;;;;;;;1.63;0.90;;;;;;;;;;6215186;23;20012;-91
2023/08/29 12:52:10;;;;;;;2.08;1.10;;;;;;;;;;6216001;23;20168;-92
2023/08/29 12:54:37;;;;;;;2.20;1.10;;;;;;;;;;6215479;23;20468;-91
2023/08/29 12:57:04;;;;;;;1.08;0.70;;;;;;;;;;6241550;23;20019;-88
2023/08/29 12:59:31;;;;;;;1.20;0.90;;;;;;;;;;6214690;23;20050;-84
2023/08/29 13:01:57;;;;;;;1.15;1.05;;;;;;;;;;6212147;23;20012;-85
2023/08/29 13:04:23;;;;;;;2.35;1.10;;;;;;;;;;6241053;23;20051;-84
2023/08/29 13:06:49;;;;;;;1.45;0.90;;;;;;;;;;6212333;23;20016;-84
2023/08/29 13:09:16;;;;;;;2.13;0.90;;;;;;;;;;6212714;23;20397;-84
2023/08/29 13:11:42;;;;;;;1.40;1.17;;;;;;;;;;6214342;23;20438;-85
2023/08/29 13:14:08;;;;;;;2.45;0.93;;;;;;;;;;6188472;23;20012;-86
2023/08/29 13:16:35;;;;;;;1.40;0.80;;;;;;;;;;6213732;23;20050;-84
2023/08/29 13:19:01;;;;;;;1.23;1.00;;;;;;;;;;6213446;23;20066;-88
2023/08/29 13:21:28;;;;;;;1.73;1.17;;;;;;;;;;6240578;23;20434;-88
2023/08/29 13:23:54;;;;;;;2.17;1.10;;;;;;;;;;6239921;23;20019;-87
2023/08/29 13:26:20;;;;;;;1.13;0.93;;;;;;;;;;6214185;23;20012;-87
2023/08/29 13:28:46;;;;;;;2.63;0.90;;;;;;;;;;6242143;23;20095;-87
2023/08/29 13:31:15;;;;;;;1.60;1.02;;;;;;;;;;6242609;23;20020;-87
2023/08/29 13:33:41;;;;;;;1.08;0.82;;;;;;;;;;6215064;23;20051;-87
2023/08/29 13:36:07;;;;;;;0.70;0.70;;;;;;;;;;6214395;23;20042;-87
2023/08/29 13:38:33;;;;;;;1.13;1.02;;;;;;;;;;6214696;23;20413;-87
2023/08/29 13:40:59;;;;;;;0.90;0.85;;;;;;;;;;6214854;23;20311;-87
2023/08/29 13:43:25;;;;;;;0.80;0.63;;;;;;;;;;6241374;23;20361;-87
2023/08/29 13:45:51;;;;;;;2.08;0.88;;;;;;;;;;6213307;23;20026;-86
2023/08/29 13:48:17;;;;;;;2.75;0.90;;;;;;;;;;6241444;23;20016;-87
2023/08/29 13:50:45;;;;;;;0.75;0.50;;;;;;;;;;6242238;23;20073;-87
2023/08/29 13:53:11;;;;;;;1.15;0.68;;;;;;;;;;6240349;23;20016;-87
2023/08/29 13:55:38;;;;;;;1.40;0.65;;;;;;;;;;6215281;23;20012;-87
2023/08/29 13:58:04;;;;;;;1.38;0.85;;;;;;;;;;6241710;23;20319;-87
2023/08/29 14:00:30;;;;;;;0.68;0.68;;;;;;;;;;6214365;23;20015;-87
2023/08/29 14:02:56;;;;;;;0.82;0.50;;;;;;;;;;6212450;23;20013;-84
2023/08/29 14:05:22;;;;;;;0.98;0.65;;;;;;;;;;6214243;23;20063;-85
2023/08/29 14:07:49;;;;;;;4.70;0.80;;;;;;;;;;6213844;23;20026;-85
2023/08/29 14:10:15;;;;;;;1.92;0.73;;;;;;;;;;6240660;23;20496;-85
2023/08/29 14:12:41;;;;;;;0.60;0.60;;;;;;;;;;6213826;23;20026;-85
2023/08/29 14:15:07;;;;;;;1.55;0.80;;;;;;;;;;6213044;23;20050;-84
2023/08/29 14:17:33;;;;;;;0.90;0.68;;;;;;;;;;6243392;23;20391;-87
2023/08/29 14:20:04;;;;;;;1.30;0.90;;;;;;;;;;6215551;23;20323;-85
2023/08/29 14:22:31;;;;;;;1.13;0.70;;;;;;;;;;6215150;23;20019;-86
2023/08/29 14:24:57;;;;;;;1.15;0.60;;;;;;;;;;6214688;23;20027;-85
2023/08/29 14:27:23;;;;;;;1.17;0.70;;;;;;;;;;6242262;23;20016;-85
2023/08/29 14:29:49;;;;;;;1.70;0.93;;;;;;;;;;6215353;23;20012;-85
2023/08/29 14:32:15;;;;;;;1.15;0.82;;;;;;;;;;6215162;23;20186;-85
2023/08/29 14:34:41;;;;;;;1.23;0.73;;;;;;;;;;6215285;23;20012;-85
2023/08/29 14:37:07;;;;;;;2.00;0.90;;;;;;;;;;6214490;23;20016;-85
2023/08/29 14:39:33;;;;;;;2.15;0.90;;;;;;;;;;6214821;23;20055;-84
2023/08/29 14:41:59;;;;;;;1.92;1.00;;;;;;;;;;6213984;23;20020;-85